Time;durP1;ratioP1;P1;durP2;ratioP2;P2;SDS_P1;SDS_P2;PMS_P1;PMS_P2;Temp;Humidity;BMP_temperature;BMP_pressure;BME280_temperature;BME280_humidity;BME280_pressure;Samples;Min_cycle;Max_cycle;Signal;HPM_P1;HPM_P2
2022/06/15 00:00:57;;;;;;;2.80;1.08;;;21.50;58.30;;;;;;4430250;32;20074;-66
2022/06/15 00:03:30;;;;;;;1.83;1.00;;;21.40;58.20;;;;;;4430176;32;20082;-66
2022/06/15 00:06:08;;;;;;;3.33;0.90;;;21.40;58.30;;;;;;4429755;32;20079;-66
2022/06/15 00:08:34;;;;;;;2.67;1.00;;;21.40;58.20;;;;;;4429452;32;20083;-66
2022/06/15 00:11:29;;;;;;;2.22;0.80;;;21.40;58.30;;;;;;4430002;32;20251;-68
2022/06/15 00:13:58;;;;;;;1.63;0.77;;;21.40;58.20;;;;;;4429001;32;20145;-66
2022/06/15 00:16:25;;;;;;;1.60;0.70;;;21.40;58.20;;;;;;4429914;32;20129;-66
2022/06/15 00:18:52;;;;;;;2.85;1.17;;;21.40;58.30;;;;;;4429439;32;20133;-66
2022/06/15 00:21:18;;;;;;;2.53;1.00;;;21.40;58.20;;;;;;4429680;32;20086;-66
2022/06/15 00:23:45;;;;;;;3.00;1.10;;;21.40;58.20;;;;;;4429668;32;20136;-67
2022/06/15 00:26:11;;;;;;;1.90;1.10;;;21.40;58.20;;;;;;4429803;32;20133;-66
2022/06/15 00:28:37;;;;;;;2.35;0.90;;;21.40;58.20;;;;;;4429585;32;20140;-66
2022/06/15 00:31:04;;;;;;;2.03;0.93;;;21.40;58.20;;;;;;4415386;32;20224;-67
2022/06/15 00:33:30;;;;;;;2.10;1.08;;;21.40;58.20;;;;;;4429392;32;20419;-66
2022/06/15 00:35:59;;;;;;;1.13;0.70;;;21.30;58.10;;;;;;4429792;32;20165;-66
2022/06/15 00:38:30;;;;;;;1.13;0.73;;;21.40;58.20;;;;;;4429212;32;20135;-66
2022/06/15 00:40:57;;;;;;;1.75;0.82;;;21.40;58.20;;;;;;4429916;32;20082;-66
2022/06/15 00:43:41;;;;;;;2.13;1.00;;;21.30;58.10;;;;;;4429706;32;20496;-66
2022/06/15 00:46:25;;;;;;;2.13;1.00;;;21.30;58.10;;;;;;4429688;32;20071;-66
2022/06/15 00:49:00;;;;;;;2.22;0.65;;;21.30;58.10;;;;;;4429591;32;20128;-66
2022/06/15 00:51:27;;;;;;;1.13;0.70;;;21.30;58.10;;;;;;4429550;32;20223;-66
2022/06/15 00:53:54;;;;;;;1.50;0.80;;;21.30;58.10;;;;;;4429456;32;20181;-66
2022/06/15 00:56:21;;;;;;;2.25;0.98;;;21.30;58.10;;;;;;4429573;32;20341;-66
2022/06/15 00:58:51;;;;;;;0.98;0.60;;;21.30;58.10;;;;;;4431071;32;20390;-66
2022/06/15 01:01:17;;;;;;;2.28;0.90;;;21.30;58.10;;;;;;4432752;32;20168;-66
2022/06/15 01:03:46;;;;;;;2.05;0.90;;;21.30;58.10;;;;;;4432304;32;20082;-66
2022/06/15 01:06:37;;;;;;;1.35;0.75;;;21.30;58.10;;;;;;4432493;32;20105;-66
2022/06/15 01:09:24;;;;;;;1.10;0.70;;;21.30;58.00;;;;;;4432546;32;20078;-66
2022/06/15 01:11:59;;;;;;;1.63;0.75;;;21.30;58.00;;;;;;4432099;32;20091;-66
2022/06/15 01:15:07;;;;;;;1.55;0.90;;;21.30;58.00;;;;;;4432453;32;20078;-66
2022/06/15 01:18:16;;;;;;;1.63;0.70;;;21.30;58.00;;;;;;4432726;32;20169;-66
2022/06/15 01:21:25;;;;;;;0.95;0.73;;;21.30;58.00;;;;;;4424019;32;20100;-66
2022/06/15 01:24:17;;;;;;;2.15;0.80;;;21.30;57.90;;;;;;4432512;32;20165;-66
2022/06/15 01:27:02;;;;;;;1.08;0.65;;;21.30;58.00;;;;;;4432209;32;20082;-66
2022/06/15 01:29:50;;;;;;;0.77;0.60;;;21.20;57.90;;;;;;4432172;32;20074;-66
2022/06/15 01:32:28;;;;;;;1.73;1.00;;;21.20;57.90;;;;;;4432061;32;20172;-66
2022/06/15 01:35:17;;;;;;;1.05;0.60;;;21.20;57.90;;;;;;4432308;32;20086;-66
2022/06/15 01:38:19;;;;;;;1.90;1.02;;;21.20;57.90;;;;;;4431884;32;20176;-66
2022/06/15 01:41:07;;;;;;;2.28;0.80;;;21.20;58.00;;;;;;4432233;32;20078;-66
2022/06/15 01:43:39;;;;;;;1.33;0.55;;;21.20;58.00;;;;;;4400074;32;20066;-66
2022/06/15 01:46:06;;;;;;;1.38;0.80;;;21.20;58.00;;;;;;4431746;32;20082;-67
2022/06/15 01:48:33;;;;;;;1.23;0.80;;;21.20;58.00;;;;;;4431954;32;20082;-66
2022/06/15 01:51:17;;;;;;;1.23;0.60;;;21.20;58.00;;;;;;4431651;32;20412;-66
2022/06/15 01:53:54;;;;;;;1.55;0.90;;;21.20;58.00;;;;;;4417765;32;20070;-66
2022/06/15 01:56:29;;;;;;;2.03;0.82;;;21.20;57.90;;;;;;4431793;32;20248;-66
2022/06/15 01:59:03;;;;;;;;;;;21.20;58.00;;;;;;4432560;32;20401;-67
2022/06/15 02:01:57;;;;;;;1.63;0.70;;;21.20;57.90;;;;;;4431760;32;19981;-66
2022/06/15 02:04:53;;;;;;;0.82;0.60;;;21.20;58.00;;;;;;4431826;32;20176;-66
2022/06/15 02:07:34;;;;;;;2.22;1.00;;;21.10;57.90;;;;;;4431394;32;20081;-66
2022/06/15 02:10:31;;;;;;;1.60;0.88;;;21.10;58.00;;;;;;4430730;32;20094;-66
2022/06/15 02:13:27;;;;;;;1.02;0.60;;;21.10;57.90;;;;;;4431406;32;20066;-66
2022/06/15 02:15:55;;;;;;;;;;;21.20;58.00;;;;;;4432362;32;20508;-66
2022/06/15 02:18:24;;;;;;;1.17;0.68;;;21.10;57.90;;;;;;4417311;32;20022;-66
2022/06/15 02:20:55;;;;;;;1.55;0.82;;;21.10;58.00;;;;;;4431293;32;20086;-66
2022/06/15 02:23:23;;;;;;;1.08;0.60;;;21.10;58.00;;;;;;4431366;32;20074;-66
2022/06/15 02:25:50;;;;;;;1.45;0.73;;;21.10;57.90;;;;;;4431177;32;20089;-66
2022/06/15 02:28:17;;;;;;;0.98;0.68;;;21.10;57.90;;;;;;4431069;32;20091;-66
2022/06/15 02:30:44;;;;;;;3.08;0.70;;;21.10;57.90;;;;;;4431075;32;20205;-66
2022/06/15 02:33:24;;;;;;;1.02;0.70;;;21.10;57.90;;;;;;4431029;32;20086;-66
2022/06/15 02:35:50;;;;;;;1.35;0.70;;;21.10;57.90;;;;;;4431397;32;20563;-66
2022/06/15 02:38:16;;;;;;;0.77;0.40;;;21.10;58.00;;;;;;4430907;32;20224;-66
2022/06/15 02:40:42;;;;;;;0.63;0.63;;;21.10;58.00;;;;;;4430972;32;20156;-66
2022/06/15 02:43:10;;;;;;;1.15;0.68;;;21.10;58.00;;;;;;4430915;32;20070;-66
2022/06/15 02:45:39;;;;;;;1.77;0.70;;;21.10;58.00;;;;;;4430582;32;20539;-66
2022/06/15 02:48:07;;;;;;;1.50;0.70;;;21.10;58.00;;;;;;4417164;32;20104;-66
2022/06/15 02:50:38;;;;;;;1.05;0.70;;;21.10;58.00;;;;;;4430785;32;20078;-66
2022/06/15 02:53:23;;;;;;;1.20;0.70;;;21.10;58.00;;;;;;4431058;32;20094;-66
2022/06/15 02:55:50;;;;;;;1.60;0.63;;;21.10;58.00;;;;;;4417746;32;20109;-66
2022/06/15 02:58:21;;;;;;;2.63;0.90;;;21.00;57.90;;;;;;4430921;32;20658;-66
2022/06/15 03:00:47;;;;;;;1.17;0.70;;;21.00;58.00;;;;;;4430933;32;20070;-69
2022/06/15 03:03:13;;;;;;;1.27;0.82;;;21.10;58.00;;;;;;4430292;32;20499;-66
2022/06/15 03:05:41;;;;;;;1.30;0.60;;;21.00;58.00;;;;;;4430481;32;20075;-66
2022/06/15 03:08:07;;;;;;;1.05;0.68;;;21.10;58.10;;;;;;4430310;32;20131;-65
2022/06/15 03:10:33;;;;;;;0.80;0.52;;;21.00;58.00;;;;;;4430363;32;20608;-66
2022/06/15 03:12:59;;;;;;;0.90;0.60;;;21.00;58.00;;;;;;4430055;32;20086;-66
2022/06/15 03:15:25;;;;;;;0.93;0.60;;;21.00;58.00;;;;;;4430225;32;20066;-66
2022/06/15 03:17:52;;;;;;;1.05;0.80;;;21.00;58.00;;;;;;4430239;32;20488;-66
2022/06/15 03:20:18;;;;;;;1.00;0.65;;;21.00;58.00;;;;;;4429801;32;20432;-65
2022/06/15 03:22:44;;;;;;;1.50;0.68;;;21.00;58.00;;;;;;4430130;32;20121;-65
2022/06/15 03:25:10;;;;;;;0.75;0.50;;;21.00;58.00;;;;;;4430024;32;20420;-66
2022/06/15 03:27:36;;;;;;;1.08;0.60;;;21.00;58.00;;;;;;4430089;32;20089;-66
2022/06/15 03:30:04;;;;;;;0.82;0.57;;;21.00;58.00;;;;;;4429815;32;20098;-66
2022/06/15 03:32:30;;;;;;;1.25;0.70;;;21.00;58.10;;;;;;4430076;32;20165;-66
2022/06/15 03:34:56;;;;;;;0.63;0.50;;;21.00;58.00;;;;;;4430259;32;20560;-66
2022/06/15 03:37:21;;;;;;;1.00;0.70;;;21.00;58.00;;;;;;4430277;32;20639;-66
2022/06/15 03:39:47;;;;;;;1.67;0.60;;;21.00;58.10;;;;;;4429985;32;20074;-67
2022/06/15 03:42:19;;;;;;;0.85;0.50;;;21.00;58.10;;;;;;4429715;32;20407;-66
2022/06/15 03:44:45;;;;;;;1.05;0.60;;;21.00;58.10;;;;;;4430062;32;20606;-66
2022/06/15 03:47:17;;;;;;;1.45;0.60;;;20.90;58.00;;;;;;4429733;32;20117;-66
2022/06/15 03:49:48;;;;;;;0.75;0.50;;;20.90;58.10;;;;;;4430150;32;20090;-66
2022/06/15 03:52:15;;;;;;;0.68;0.50;;;20.90;58.00;;;;;;4429997;32;20074;-66
2022/06/15 03:54:41;;;;;;;0.63;0.50;;;21.00;58.10;;;;;;4429929;32;20097;-66
2022/06/15 03:57:09;;;;;;;0.70;0.52;;;20.90;58.10;;;;;;4430188;32;20543;-66
2022/06/15 03:59:35;;;;;;;1.00;0.57;;;20.90;58.10;;;;;;4429920;32;20075;-66
2022/06/15 04:02:00;;;;;;;0.95;0.55;;;20.90;58.10;;;;;;4416065;32;20404;-66
2022/06/15 04:04:28;;;;;;;0.90;0.50;;;20.90;58.10;;;;;;4430067;32;20078;-66
2022/06/15 04:06:54;;;;;;;1.23;0.70;;;21.00;58.20;;;;;;4429758;32;20423;-66
2022/06/15 04:09:21;;;;;;;1.60;0.77;;;20.90;58.10;;;;;;4415656;32;20153;-66
2022/06/15 04:14:36;;;;;;;0.90;0.52;;;20.90;58.10;;;;;;4430016;32;20492;-66
2022/06/15 04:17:03;;;;;;;1.10;0.60;;;20.90;58.20;;;;;;4429940;32;20535;-67
2022/06/15 04:19:31;;;;;;;2.10;0.57;;;20.90;58.20;;;;;;4429410;32;20519;-66
2022/06/15 04:21:58;;;;;;;1.27;0.57;;;20.90;58.10;;;;;;4415620;32;20094;-66
2022/06/15 04:24:28;;;;;;;1.35;0.60;;;20.90;58.20;;;;;;4429429;32;20097;-66
2022/06/15 04:26:55;;;;;;;0.90;0.52;;;20.90;58.10;;;;;;4429818;32;20189;-66
2022/06/15 04:29:21;;;;;;;1.35;0.50;;;20.90;58.20;;;;;;4429169;32;20078;-66
2022/06/15 04:31:48;;;;;;;1.48;0.50;;;20.90;58.20;;;;;;4430001;32;20160;-66
2022/06/15 04:34:14;;;;;;;0.82;0.50;;;20.90;58.20;;;;;;4432211;32;20400;-66
2022/06/15 04:36:43;;;;;;;0.47;0.40;;;20.80;58.10;;;;;;4432975;32;20078;-66
2022/06/15 04:39:11;;;;;;;0.82;0.50;;;20.90;58.20;;;;;;4432642;32;20110;-66
2022/06/15 04:41:39;;;;;;;0.98;0.43;;;20.90;58.20;;;;;;4432988;32;20079;-66
2022/06/15 04:44:07;;;;;;;0.90;0.60;;;20.90;58.20;;;;;;4432426;32;20160;-66
2022/06/15 04:46:33;;;;;;;1.00;0.55;;;20.80;58.20;;;;;;4432536;32;20598;-66
2022/06/15 04:49:00;;;;;;;0.90;0.60;;;20.90;58.20;;;;;;4432683;32;20066;-66
2022/06/15 04:51:29;;;;;;;1.05;0.50;;;20.80;58.20;;;;;;4432879;32;20086;-66
2022/06/15 04:53:57;;;;;;;1.23;0.50;;;20.80;58.20;;;;;;4432453;32;20071;-66
2022/06/15 04:56:24;;;;;;;1.02;0.60;;;20.80;58.30;;;;;;4432175;32;20094;-66
2022/06/15 04:58:50;;;;;;;0.85;0.40;;;20.80;58.30;;;;;;4432710;32;20066;-66
2022/06/15 05:01:16;;;;;;;0.90;0.57;;;20.80;58.30;;;;;;4432408;32;20129;-66
2022/06/15 05:03:42;;;;;;;0.90;0.50;;;20.80;58.30;;;;;;4432422;32;20124;-66
2022/06/15 05:06:29;;;;;;;0.90;0.45;;;20.80;58.30;;;;;;4432338;32;20086;-66
2022/06/15 05:08:55;;;;;;;0.80;0.60;;;20.90;58.30;;;;;;4418710;32;20066;-66
2022/06/15 05:11:20;;;;;;;0.98;0.60;;;20.90;58.40;;;;;;4432426;32;20074;-66
2022/06/15 05:13:46;;;;;;;1.00;0.50;;;20.80;58.30;;;;;;4431981;32;20389;-66
2022/06/15 05:16:13;;;;;;;0.73;0.50;;;20.80;59.20;;;;;;4418484;32;20079;-70
2022/06/15 05:18:39;;;;;;;0.80;0.60;;;20.80;58.30;;;;;;4431799;32;20502;-66
2022/06/15 05:21:05;;;;;;;0.77;0.50;;;20.80;58.30;;;;;;4432205;32;20099;-67
2022/06/15 05:23:31;;;;;;;1.20;0.55;;;20.80;58.30;;;;;;4432363;32;20070;-66
2022/06/15 05:26:00;;;;;;;0.50;0.50;;;20.80;58.30;;;;;;4418448;32;20055;-68
2022/06/15 05:28:26;;;;;;;1.20;0.55;;;20.80;58.40;;;;;;4432066;32;20100;-66
2022/06/15 05:31:04;;;;;;;0.85;0.50;;;20.80;58.40;;;;;;4431468;32;20536;-66
2022/06/15 05:33:32;;;;;;;0.73;0.40;;;20.80;58.30;;;;;;4432067;32;20097;-66
2022/06/15 05:36:03;;;;;;;0.80;0.60;;;20.80;58.30;;;;;;4431922;32;20087;-67
2022/06/15 05:38:29;;;;;;;1.10;0.70;;;20.80;58.40;;;;;;4432253;32;20089;-66
2022/06/15 05:40:55;;;;;;;0.60;0.40;;;20.90;58.50;;;;;;4432097;32;20071;-66
2022/06/15 05:43:21;;;;;;;0.75;0.30;;;20.90;58.40;;;;;;4431473;32;20085;-66
2022/06/15 05:45:48;;;;;;;1.20;0.50;;;20.90;58.40;;;;;;4431829;32;20483;-66
2022/06/15 05:48:14;;;;;;;0.90;0.70;;;20.90;58.40;;;;;;4431699;32;20079;-66
2022/06/15 05:50:39;;;;;;;0.98;0.60;;;20.90;58.40;;;;;;4431649;32;20510;-66
2022/06/15 05:53:05;;;;;;;1.00;0.50;;;20.90;58.40;;;;;;4431388;32;20416;-67
2022/06/15 05:55:31;;;;;;;0.82;0.43;;;21.00;58.40;;;;;;4431608;32;20089;-66
2022/06/15 05:57:57;;;;;;;0.88;0.47;;;20.90;58.40;;;;;;4431593;32;20070;-66
2022/06/15 06:00:25;;;;;;;0.85;0.52;;;21.00;58.40;;;;;;4431735;32;20067;-67
2022/06/15 06:02:56;;;;;;;0.90;0.60;;;20.90;58.40;;;;;;4432111;32;20094;-66
2022/06/15 06:05:23;;;;;;;1.00;0.60;;;21.00;58.40;;;;;;4431460;32;20140;-66
2022/06/15 06:07:50;;;;;;;1.55;0.75;;;20.90;58.30;;;;;;4431299;32;20090;-67
2022/06/15 06:10:15;;;;;;;0.75;0.45;;;21.00;58.40;;;;;;4431421;32;20105;-66
2022/06/15 06:12:42;;;;;;;1.00;0.60;;;20.90;58.30;;;;;;4431367;32;20122;-66
2022/06/15 06:15:08;;;;;;;0.52;0.32;;;20.90;58.30;;;;;;4417292;32;20078;-66
2022/06/15 06:17:34;;;;;;;0.98;0.60;;;20.90;58.30;;;;;;4431306;32;20598;-66
2022/06/15 06:20:00;;;;;;;0.63;0.50;;;20.90;58.30;;;;;;4430986;32;20082;-66
2022/06/15 06:22:27;;;;;;;0.77;0.45;;;20.90;58.30;;;;;;4431407;32;20384;-65
2022/06/15 06:24:53;;;;;;;0.77;0.50;;;20.90;58.30;;;;;;4431360;32;20078;-66
2022/06/15 06:27:19;;;;;;;0.60;0.38;;;20.90;58.30;;;;;;4431321;32;20469;-66
2022/06/15 06:29:44;;;;;;;0.50;0.40;;;21.00;58.40;;;;;;4431020;32;20137;-66
2022/06/15 06:32:15;;;;;;;0.82;0.45;;;20.90;58.30;;;;;;4430950;32;20067;-65
2022/06/15 06:34:41;;;;;;;1.75;0.38;;;20.90;58.30;;;;;;4430805;32;20082;-65
2022/06/15 06:37:07;;;;;;;1.65;0.45;;;20.90;58.40;;;;;;4431073;32;20078;-65
2022/06/15 06:39:34;;;;;;;0.98;0.70;;;20.90;58.50;;;;;;4430850;32;20097;-65
2022/06/15 06:42:02;;;;;;;1.15;0.70;;;21.00;58.60;;;;;;4417120;32;20163;-66
2022/06/15 06:44:28;;;;;;;1.73;0.98;;;21.00;58.60;;;;;;4431111;32;20490;-66
2022/06/15 06:46:54;;;;;;;2.35;0.70;;;21.00;58.70;;;;;;4431063;32;20508;-65
2022/06/15 06:49:21;;;;;;;2.85;0.73;;;21.00;58.80;;;;;;4431029;32;20505;-65
2022/06/15 06:51:48;;;;;;;3.75;0.88;;;21.10;59.00;;;;;;4430855;32;20161;-65
2022/06/15 06:54:17;;;;;;;1.83;0.88;;;21.00;59.10;;;;;;4431003;32;20508;-65
2022/06/15 06:56:43;;;;;;;4.18;1.00;;;21.10;59.30;;;;;;4430282;32;20126;-65
2022/06/15 06:59:11;;;;;;;3.00;1.20;;;21.10;59.40;;;;;;4430411;32;20292;-66
2022/06/15 07:01:40;;;;;;;4.22;1.30;;;21.10;59.50;;;;;;4430697;32;20093;-65
2022/06/15 07:04:07;;;;;;;2.00;0.80;;;21.10;59.50;;;;;;4430557;32;20133;-68
2022/06/15 07:06:36;;;;;;;4.10;1.00;;;21.10;59.50;;;;;;4430795;32;20114;-65
2022/06/15 07:09:03;;;;;;;2.63;1.15;;;21.10;59.60;;;;;;4430518;32;20257;-66
2022/06/15 07:11:29;;;;;;;3.60;0.90;;;21.10;59.70;;;;;;4430486;32;20212;-65
2022/06/15 07:13:56;;;;;;;3.22;0.90;;;21.10;59.60;;;;;;4416699;32;20196;-65
2022/06/15 07:16:22;;;;;;;2.65;1.00;;;21.10;59.70;;;;;;4430655;32;20124;-66
2022/06/15 07:18:49;;;;;;;4.10;0.93;;;21.10;59.70;;;;;;4430373;32;20089;-65
2022/06/15 07:21:19;;;;;;;2.90;0.80;;;21.10;59.70;;;;;;4430360;32;20400;-65
2022/06/15 07:23:48;;;;;;;8.02;1.17;;;21.10;59.80;;;;;;4430213;32;20506;-66
2022/06/15 07:26:18;;;;;;;3.92;1.20;;;21.10;59.90;;;;;;4429959;32;20412;-66
2022/06/15 07:28:44;;;;;;;3.47;1.23;;;21.10;59.80;;;;;;4429974;32;20420;-66
2022/06/15 07:31:20;;;;;;;3.58;1.40;;;21.20;59.90;;;;;;4429631;32;20078;-65
2022/06/15 07:33:46;;;;;;;5.30;1.80;;;21.20;59.90;;;;;;4430157;32;20164;-65
2022/06/15 07:36:12;;;;;;;3.50;1.48;;;21.20;59.90;;;;;;4429869;32;20130;-66
2022/06/15 07:38:38;;;;;;;4.80;1.88;;;21.20;60.00;;;;;;4430061;32;20082;-65
2022/06/15 07:41:04;;;;;;;5.60;1.98;;;21.10;59.90;;;;;;4430104;32;20066;-66
2022/06/15 07:43:31;;;;;;;3.95;1.55;;;21.20;60.00;;;;;;4429945;32;20493;-66
2022/06/15 07:45:57;;;;;;;3.85;1.10;;;21.20;59.90;;;;;;4429622;32;20173;-66
2022/06/15 07:51:08;;;;;;;2.72;1.30;;;21.20;59.90;;;;;;4430313;32;20133;-66
2022/06/15 07:53:34;;;;;;;2.72;1.52;;;21.20;60.70;;;;;;4429919;32;20271;-66
2022/06/15 07:56:01;;;;;;;3.15;1.20;;;21.20;59.80;;;;;;4429455;32;20078;-66
2022/06/15 07:58:27;;;;;;;3.65;1.15;;;21.20;59.80;;;;;;4429462;32;20093;-66
2022/06/15 08:00:53;;;;;;;3.15;1.17;;;21.20;59.80;;;;;;4429410;32;20078;-65
2022/06/15 08:03:19;;;;;;;3.47;1.15;;;21.20;59.70;;;;;;4429423;32;20152;-66
2022/06/15 08:05:49;;;;;;;4.10;1.50;;;21.30;59.80;;;;;;4429873;32;20614;-65
2022/06/15 08:08:22;;;;;;;3.00;1.15;;;21.20;59.70;;;;;;4429826;32;20081;-65
2022/06/15 08:10:48;;;;;;;3.33;1.50;;;21.20;59.80;;;;;;4429804;32;20078;-65
2022/06/15 08:13:15;;;;;;;3.35;1.15;;;21.20;59.70;;;;;;4429622;32;20443;-66
2022/06/15 08:15:42;;;;;;;4.10;1.55;;;21.20;59.80;;;;;;4429489;32;20082;-66
2022/06/15 08:18:13;;;;;;;3.75;1.20;;;21.20;59.80;;;;;;4429631;32;20067;-66
2022/06/15 08:20:51;;;;;;;2.50;1.10;;;21.20;59.80;;;;;;4429399;32;20078;-66
2022/06/15 08:23:23;;;;;;;3.83;1.50;;;21.20;59.80;;;;;;4429634;32;20610;-66
2022/06/15 08:25:53;;;;;;;3.50;1.05;;;21.20;59.90;;;;;;4429241;32;20125;-66
2022/06/15 08:28:21;;;;;;;3.92;1.40;;;21.20;59.90;;;;;;4429659;32;20093;-65
2022/06/15 08:30:48;;;;;;;3.38;1.20;;;21.20;59.90;;;;;;4429263;32;20133;-65
2022/06/15 08:33:15;;;;;;;3.20;1.27;;;21.20;59.80;;;;;;4429525;32;20141;-66
2022/06/15 08:35:41;;;;;;;3.78;1.00;;;21.30;59.80;;;;;;4429308;32;20074;-70
2022/06/15 08:38:10;;;;;;;4.20;1.27;;;21.30;59.70;;;;;;4429236;32;20070;-65
2022/06/15 08:41:09;;;;;;;3.22;1.20;;;21.30;59.70;;;;;;4429101;32;20082;-65
2022/06/15 08:43:40;;;;;;;3.90;1.20;;;21.30;59.70;;;;;;4417589;32;20082;-65
2022/06/15 08:46:45;;;;;;;2.20;1.15;;;21.30;59.70;;;;;;4429310;32;20496;-65
2022/06/15 08:49:35;;;;;;;4.20;1.70;;;21.30;59.80;;;;;;4428781;32;20070;-66
2022/06/15 08:52:08;;;;;;;4.97;1.38;;;21.30;59.70;;;;;;4429419;32;20546;-67
2022/06/15 08:54:58;;;;;;;2.03;1.20;;;21.30;59.70;;;;;;4429077;32;20143;-65
2022/06/15 08:57:49;;;;;;;3.00;1.40;;;21.30;59.60;;;;;;4408533;32;20492;-66
2022/06/15 09:00:19;;;;;;;3.50;1.40;;;21.30;59.60;;;;;;4429502;32;20651;-66
2022/06/15 09:02:58;;;;;;;4.38;1.58;;;21.40;59.70;;;;;;4429226;32;20074;-65
2022/06/15 09:05:42;;;;;;;4.20;1.40;;;21.40;59.70;;;;;;4429706;32;20078;-66
2022/06/15 09:08:23;;;;;;;3.45;1.60;;;21.40;59.70;;;;;;4429206;32;20618;-67
2022/06/15 09:11:02;;;;;;;8.63;1.88;;;21.40;59.50;;;;;;4429519;32;20079;-66
2022/06/15 09:13:46;;;;;;;2.20;1.40;;;21.40;59.50;;;;;;4429586;32;20082;-65
2022/06/15 09:16:29;;;;;;;3.85;1.67;;;21.40;59.40;;;;;;4429427;32;20095;-66
2022/06/15 09:19:02;;;;;;;3.65;1.33;;;21.50;59.40;;;;;;4415910;32;20066;-66
2022/06/15 09:21:34;;;;;;;2.70;1.50;;;21.50;59.10;;;;;;4431912;32;20075;-66
2022/06/15 09:24:06;;;;;;;3.90;1.77;;;21.60;59.10;;;;;;4431689;32;20070;-66
2022/06/15 09:26:58;;;;;;;3.53;1.60;;;21.60;59.10;;;;;;4431883;32;20101;-65
2022/06/15 09:29:33;;;;;;;5.82;1.50;;;21.60;59.10;;;;;;4431630;32;20161;-65
2022/06/15 09:32:10;;;;;;;5.18;1.73;;;21.60;59.00;;;;;;4432372;32;20447;-65
2022/06/15 09:34:43;;;;;;;3.58;1.45;;;21.60;59.00;;;;;;4434232;32;20192;-66
2022/06/15 09:37:16;;;;;;;5.60;1.45;;;21.60;58.80;;;;;;4433752;32;20588;-65
2022/06/15 09:39:43;;;;;;;5.75;1.60;;;21.60;58.70;;;;;;4433618;32;20079;-67
2022/06/15 09:42:21;;;;;;;4.35;1.50;;;21.60;58.60;;;;;;4433214;32;20090;-65
2022/06/15 09:45:06;;;;;;;5.95;1.48;;;21.60;58.60;;;;;;4432602;32;20074;-66
2022/06/15 09:47:32;;;;;;;2.80;1.40;;;21.70;58.50;;;;;;4431740;32;20078;-66
2022/06/15 09:50:30;;;;;;;3.60;1.48;;;21.70;58.30;;;;;;4431685;32;20062;-65
2022/06/15 09:53:16;;;;;;;5.95;1.50;;;21.70;58.20;;;;;;4431825;32;20078;-65
2022/06/15 09:55:46;;;;;;;2.30;1.50;;;21.80;58.10;;;;;;4431878;32;20089;-65
2022/06/15 09:58:17;;;;;;;3.35;1.50;;;21.80;57.90;;;;;;4431865;32;20128;-66
2022/06/15 10:00:44;;;;;;;3.67;1.67;;;21.80;57.70;;;;;;4431846;32;20686;-71
2022/06/15 10:03:32;;;;;;;6.22;1.40;;;21.90;57.80;;;;;;4431192;32;20109;-67
2022/06/15 10:06:07;;;;;;;4.43;1.50;;;21.90;57.40;;;;;;4431238;32;20096;-67
2022/06/15 10:08:33;;;;;;;3.22;1.40;;;22.00;57.40;;;;;;4431318;32;20303;-66
2022/06/15 10:11:02;;;;;;;5.53;1.60;;;22.00;57.20;;;;;;4431514;32;20090;-67
2022/06/15 10:13:34;;;;;;;2.03;1.20;;;22.00;57.00;;;;;;4431048;32;20089;-67
2022/06/15 10:16:02;;;;;;;3.20;1.37;;;22.00;56.80;;;;;;4431309;32;20134;-66
2022/06/15 10:18:46;;;;;;;4.70;1.30;;;22.10;56.70;;;;;;4431015;32;20164;-67
2022/06/15 10:21:15;;;;;;;3.40;1.30;;;22.10;56.30;;;;;;4417166;32;20093;-67
2022/06/15 10:24:13;;;;;;;2.17;1.33;;;22.10;56.20;;;;;;4431364;32;20118;-67
2022/06/15 10:26:42;;;;;;;3.60;1.42;;;22.10;55.90;;;;;;4418990;32;20526;-67
2022/06/15 10:29:23;;;;;;;3.53;1.58;;;22.20;56.10;;;;;;4431036;32;20071;-67
2022/06/15 10:32:16;;;;;;;5.32;1.65;;;22.20;55.70;;;;;;4429958;32;20082;-67
2022/06/15 10:34:41;;;;;;;2.53;1.63;;;22.20;55.60;;;;;;4431181;32;20090;-67
2022/06/15 10:37:26;;;;;;;4.28;1.50;;;22.20;55.60;;;;;;4431194;32;20078;-67
2022/06/15 10:39:55;;;;;;;2.15;1.60;;;22.20;55.40;;;;;;4431217;32;20082;-67
2022/06/15 10:42:24;;;;;;;5.45;2.35;;;22.20;55.40;;;;;;4430794;32;20220;-66
2022/06/15 10:45:00;;;;;;;3.95;2.30;;;22.20;55.20;;;;;;4431100;32;20115;-67
2022/06/15 10:47:42;;;;;;;5.70;2.60;;;22.30;55.20;;;;;;4430695;32;20090;-67
2022/06/15 10:50:21;;;;;;;6.40;2.30;;;22.30;55.10;;;;;;4430793;32;20093;-67
2022/06/15 10:53:05;;;;;;;4.13;2.33;;;22.30;56.30;;;;;;4430654;32;20085;-67
2022/06/15 11:04:22;;;;;;;5.18;2.28;;;22.30;55.20;;;;;;4430889;32;20094;-66
2022/06/15 11:07:04;;;;;;;6.28;2.42;;;22.40;55.20;;;;;;4416446;32;20228;-67
2022/06/15 11:09:38;;;;;;;3.72;2.35;;;22.40;55.10;;;;;;4430514;32;20070;-66
2022/06/15 11:12:23;;;;;;;4.03;1.90;;;22.40;55.00;;;;;;4416973;32;20125;-67
2022/06/15 11:15:04;;;;;;;4.72;2.17;;;22.30;54.60;;;;;;4430726;32;20094;-67
2022/06/15 11:20:27;;;;;;;3.05;2.00;;;22.40;54.80;;;;;;4430253;32;20137;-66
2022/06/15 11:23:01;;;;;;;3.22;1.90;;;22.40;54.60;;;;;;4430681;32;20208;-66
2022/06/15 11:26:51;;;;;;;5.97;2.10;;;22.40;54.40;;;;;;4430640;32;20423;-67
2022/06/15 11:28:49;;;;;;;3.17;1.77;;;22.40;54.10;;;;;;4429388;32;20185;-69
2022/06/15 11:31:17;;;;;;;3.70;1.92;;;22.50;54.10;;;;;;4428946;32;20184;-66
2022/06/15 11:33:57;;;;;;;2.90;1.77;;;22.50;53.80;;;;;;4430367;32;20128;-67
2022/06/15 11:36:36;;;;;;;5.45;2.25;;;22.50;53.50;;;;;;4430662;32;20120;-67
2022/06/15 11:39:16;;;;;;;7.53;1.80;;;22.50;53.50;;;;;;4429950;32;20153;-67
2022/06/15 11:41:50;;;;;;;3.78;2.10;;;22.50;53.30;;;;;;4428830;32;20206;-67
2022/06/15 11:44:33;;;;;;;4.60;1.90;;;22.50;53.50;;;;;;4430074;32;20081;-66
2022/06/15 11:47:20;;;;;;;2.55;1.77;;;22.50;53.40;;;;;;4430073;32;20070;-67
2022/06/15 11:49:55;;;;;;;3.63;1.80;;;22.50;53.40;;;;;;4430023;32;20122;-67
2022/06/15 11:52:48;;;;;;;4.20;1.90;;;22.50;53.30;;;;;;4415856;32;20145;-67
2022/06/15 11:55:39;;;;;;;5.67;1.87;;;22.50;53.10;;;;;;4429781;32;20067;-66
2022/06/15 11:58:26;;;;;;;2.70;1.48;;;22.60;53.00;;;;;;4416174;32;20679;-66
2022/06/15 12:01:05;;;;;;;3.42;1.40;;;22.50;52.80;;;;;;4430144;32;20080;-68
2022/06/15 12:03:49;;;;;;;3.72;1.60;;;22.60;52.70;;;;;;4416135;32;20189;-66
2022/06/15 12:06:45;;;;;;;4.50;1.80;;;22.60;52.50;;;;;;4429795;32;20093;-66
2022/06/15 12:09:23;;;;;;;3.42;1.73;;;22.60;52.50;;;;;;4374495;32;20076;-67
2022/06/15 12:15:02;;;;;;;2.38;1.55;;;22.60;52.30;;;;;;4429498;32;20271;-66
2022/06/15 12:17:43;;;;;;;2.97;1.75;;;22.60;52.10;;;;;;4429838;32;20078;-66
2022/06/15 12:20:40;;;;;;;3.80;1.60;;;22.60;52.00;;;;;;4429960;32;20062;-66
2022/06/15 12:23:12;;;;;;;2.58;1.25;;;22.70;51.50;;;;;;4408043;32;20093;-67
2022/06/15 12:26:01;;;;;;;3.20;1.37;;;22.60;51.70;;;;;;4429804;32;20075;-67
2022/06/15 12:28:40;;;;;;;3.80;1.90;;;22.70;51.40;;;;;;4429625;32;20231;-67
2022/06/15 12:31:16;;;;;;;3.72;1.77;;;22.70;51.10;;;;;;4413100;32;20091;-67
2022/06/15 12:33:53;;;;;;;3.85;1.60;;;22.70;51.20;;;;;;4414183;32;20169;-66
2022/06/15 12:36:34;;;;;;;4.85;1.75;;;22.70;51.10;;;;;;4414379;32;20216;-66
2022/06/15 12:39:18;;;;;;;3.95;1.40;;;22.80;51.00;;;;;;4414465;32;20528;-66
2022/06/15 12:44:38;;;;;;;4.40;1.60;;;22.80;50.80;;;;;;4414296;32;20094;-67
2022/06/15 12:47:10;;;;;;;3.38;1.40;;;22.80;50.50;;;;;;4414395;32;20260;-67
2022/06/15 12:49:51;;;;;;;4.35;1.50;;;22.90;50.60;;;;;;4414508;32;20130;-66
2022/06/15 12:52:23;;;;;;;3.90;1.50;;;22.80;50.20;;;;;;4414237;32;20210;-66
2022/06/15 12:55:26;;;;;;;3.03;1.55;;;22.80;50.10;;;;;;4416185;32;20090;-66
2022/06/15 12:58:13;;;;;;;2.78;1.27;;;22.90;50.10;;;;;;4399398;32;20212;-66
2022/06/15 13:00:52;;;;;;;3.78;1.50;;;22.90;49.80;;;;;;4417279;32;20101;-66
2022/06/15 13:03:58;;;;;;;4.50;1.85;;;22.90;49.70;;;;;;4417096;32;20540;-67
2022/06/15 13:06:27;;;;;;;1.95;1.33;;;22.90;49.50;;;;;;4417407;32;20097;-67
2022/06/15 13:09:19;;;;;;;3.83;1.42;;;22.90;49.70;;;;;;4416618;32;20130;-66
2022/06/15 13:12:05;;;;;;;3.92;2.00;;;22.90;49.60;;;;;;4416970;32;20071;-67
2022/06/15 13:14:54;;;;;;;3.72;1.70;;;22.90;49.60;;;;;;4417222;32;20071;-67
2022/06/15 13:18:06;;;;;;;3.55;1.40;;;22.90;49.40;;;;;;4416902;32;20245;-67
2022/06/15 13:20:33;;;;;;;2.53;1.40;;;22.90;49.40;;;;;;4416776;32;20105;-66
2022/06/15 13:22:59;;;;;;;2.67;1.30;;;22.90;49.50;;;;;;4417021;32;20168;-67
2022/06/15 13:25:26;;;;;;;1.92;1.20;;;22.90;49.30;;;;;;4403029;32;20595;-66
2022/06/15 13:28:00;;;;;;;2.80;1.30;;;22.90;49.30;;;;;;4416441;32;20105;-67
2022/06/15 13:30:32;;;;;;;2.58;1.50;;;23.00;49.20;;;;;;4416676;32;20571;-66
2022/06/15 13:33:01;;;;;;;4.38;1.45;;;22.90;49.30;;;;;;4431975;32;20145;-66
2022/06/15 13:35:40;;;;;;;4.80;1.48;;;23.00;49.60;;;;;;4431834;32;20075;-67
2022/06/15 13:38:26;;;;;;;4.63;1.88;;;23.00;50.10;;;;;;4431781;32;20626;-66
2022/06/15 13:40:58;;;;;;;2.33;1.65;;;23.00;50.20;;;;;;4432121;32;20134;-68
2022/06/15 13:43:31;;;;;;;2.22;1.40;;;23.00;50.50;;;;;;4432107;32;20102;-66